Albert Lea, Minnesota
Current Conditions -  °F | °C
As of 3:13 PM on Saturday 22 Nov 2014 (Local Time) from KAEL Reporting Station
Haze Haze  
Wind Chill: 31°   Ceiling: 100
Heat Index: 37°   Visibility: 0.75mi
Dew Point: 37°   Wind: 8mph
Humidity: 100%   Direction: 200°SSW
Pressure: 29.67"   Gusts: NA
Location:  43.65°N, 93.37°W
Report Text: KAEL 222113Z AUTO 20007KT 3/4SM BR OVC001 03/03 A2967 RMK AO2
Loading
Personal Weather Stations






























Interactive Weather Map New forecast layout! Learn more

10-Day Weather Forecast

Advertisements
Track Severe Weather on mobile